sensor_id;sensor_type;location;lat;lon;timestamp;P1;durP1;ratioP1;P2;durP2;ratioP2
15142;SDS011;7672;50.834;6.286;2023-02-23T00:02:01;32.03;;;28.67;;
15142;SDS011;7672;50.834;6.286;2023-02-23T00:04:33;34.20;;;30.30;;
15142;SDS011;7672;50.834;6.286;2023-02-23T00:07:00;34.97;;;30.80;;
15142;SDS011;7672;50.834;6.286;2023-02-23T00:09:28;32.97;;;29.50;;
15142;SDS011;7672;50.834;6.286;2023-02-23T00:12:01;34.40;;;30.77;;
15142;SDS011;7672;50.834;6.286;2023-02-23T00:14:35;37.47;;;32.20;;
15142;SDS011;7672;50.834;6.286;2023-02-23T00:17:03;38.13;;;32.20;;
15142;SDS011;7672;50.834;6.286;2023-02-23T00:19:39;35.07;;;31.37;;
15142;SDS011;7672;50.834;6.286;2023-02-23T00:22:08;36.33;;;31.90;;
15142;SDS011;7672;50.834;6.286;2023-02-23T00:24:35;35.97;;;32.27;;
15142;SDS011;7672;50.834;6.286;2023-02-23T00:27:03;34.67;;;30.97;;
15142;SDS011;7672;50.834;6.286;2023-02-23T00:29:31;33.90;;;30.30;;
15142;SDS011;7672;50.834;6.286;2023-02-23T00:32:04;35.03;;;31.30;;
15142;SDS011;7672;50.834;6.286;2023-02-23T00:34:31;35.37;;;31.77;;
15142;SDS011;7672;50.834;6.286;2023-02-23T00:36:58;35.80;;;31.90;;
15142;SDS011;7672;50.834;6.286;2023-02-23T00:39:24;35.33;;;31.53;;
15142;SDS011;7672;50.834;6.286;2023-02-23T00:41:54;38.30;;;34.37;;
15142;SDS011;7672;50.834;6.286;2023-02-23T00:44:22;37.83;;;33.67;;
15142;SDS011;7672;50.834;6.286;2023-02-23T00:46:50;38.83;;;34.83;;
15142;SDS011;7672;50.834;6.286;2023-02-23T00:49:18;38.80;;;33.37;;
15142;SDS011;7672;50.834;6.286;2023-02-23T00:51:48;37.63;;;33.50;;
15142;SDS011;7672;50.834;6.286;2023-02-23T00:54:16;38.93;;;34.73;;
15142;SDS011;7672;50.834;6.286;2023-02-23T00:56:45;37.77;;;33.87;;
15142;SDS011;7672;50.834;6.286;2023-02-23T00:59:13;38.73;;;34.50;;
15142;SDS011;7672;50.834;6.286;2023-02-23T01:01:40;37.07;;;33.10;;
15142;SDS011;7672;50.834;6.286;2023-02-23T01:04:08;37.17;;;32.97;;
15142;SDS011;7672;50.834;6.286;2023-02-23T01:06:37;37.73;;;33.73;;
15142;SDS011;7672;50.834;6.286;2023-02-23T01:09:08;38.13;;;34.23;;
15142;SDS011;7672;50.834;6.286;2023-02-23T01:11:39;37.83;;;33.73;;
15142;SDS011;7672;50.834;6.286;2023-02-23T01:14:08;40.07;;;34.23;;
15142;SDS011;7672;50.834;6.286;2023-02-23T01:16:35;36.73;;;32.87;;
15142;SDS011;7672;50.834;6.286;2023-02-23T01:19:04;40.10;;;35.80;;
15142;SDS011;7672;50.834;6.286;2023-02-23T01:21:33;39.30;;;34.63;;
15142;SDS011;7672;50.834;6.286;2023-02-23T01:24:03;39.93;;;34.77;;
15142;SDS011;7672;50.834;6.286;2023-02-23T01:26:38;39.00;;;34.70;;
15142;SDS011;7672;50.834;6.286;2023-02-23T01:29:11;38.90;;;34.70;;
15142;SDS011;7672;50.834;6.286;2023-02-23T01:31:43;39.93;;;34.77;;
15142;SDS011;7672;50.834;6.286;2023-02-23T01:34:13;38.00;;;33.97;;
15142;SDS011;7672;50.834;6.286;2023-02-23T01:36:41;38.70;;;34.20;;
15142;SDS011;7672;50.834;6.286;2023-02-23T01:39:13;39.70;;;34.70;;
15142;SDS011;7672;50.834;6.286;2023-02-23T01:41:44;38.47;;;34.37;;
15142;SDS011;7672;50.834;6.286;2023-02-23T01:46:42;42.03;;;36.33;;
15142;SDS011;7672;50.834;6.286;2023-02-23T01:49:12;39.87;;;35.57;;
15142;SDS011;7672;50.834;6.286;2023-02-23T01:54:43;46.70;;;38.77;;
15142;SDS011;7672;50.834;6.286;2023-02-23T01:57:17;47.23;;;38.80;;
15142;SDS011;7672;50.834;6.286;2023-02-23T01:59:50;46.43;;;40.23;;
15142;SDS011;7672;50.834;6.286;2023-02-23T02:02:18;48.53;;;40.20;;
15142;SDS011;7672;50.834;6.286;2023-02-23T02:04:55;46.07;;;39.50;;
15142;SDS011;7672;50.834;6.286;2023-02-23T02:07:23;47.67;;;40.10;;
15142;SDS011;7672;50.834;6.286;2023-02-23T02:09:55;46.03;;;39.27;;
15142;SDS011;7672;50.834;6.286;2023-02-23T02:12:53;48.73;;;39.73;;
15142;SDS011;7672;50.834;6.286;2023-02-23T02:15:22;42.87;;;37.23;;
15142;SDS011;7672;50.834;6.286;2023-02-23T02:24:07;49.60;;;38.80;;
15142;SDS011;7672;50.834;6.286;2023-02-23T02:30:36;44.77;;;37.47;;
15142;SDS011;7672;50.834;6.286;2023-02-23T02:48:23;47.83;;;38.37;;
15142;SDS011;7672;50.834;6.286;2023-02-23T02:56:36;51.47;;;39.27;;
15142;SDS011;7672;50.834;6.286;2023-02-23T02:59:10;50.30;;;37.97;;
15142;SDS011;7672;50.834;6.286;2023-02-23T03:02:00;49.00;;;37.67;;
15142;SDS011;7672;50.834;6.286;2023-02-23T03:04:48;50.50;;;38.53;;
15142;SDS011;7672;50.834;6.286;2023-02-23T03:07:35;48.87;;;36.10;;
15142;SDS011;7672;50.834;6.286;2023-02-23T03:10:35;48.50;;;37.80;;
15142;SDS011;7672;50.834;6.286;2023-02-23T03:20:27;43.70;;;35.33;;
15142;SDS011;7672;50.834;6.286;2023-02-23T03:23:35;45.47;;;33.50;;
15142;SDS011;7672;50.834;6.286;2023-02-23T03:27:03;44.97;;;34.40;;
15142;SDS011;7672;50.834;6.286;2023-02-23T03:33:12;47.73;;;36.60;;
15142;SDS011;7672;50.834;6.286;2023-02-23T03:36:16;46.07;;;34.97;;
15142;SDS011;7672;50.834;6.286;2023-02-23T03:39:14;46.87;;;36.00;;
15142;SDS011;7672;50.834;6.286;2023-02-23T03:42:10;43.30;;;35.03;;
15142;SDS011;7672;50.834;6.286;2023-02-23T03:45:08;47.70;;;36.50;;
15142;SDS011;7672;50.834;6.286;2023-02-23T03:47:59;47.83;;;37.53;;
15142;SDS011;7672;50.834;6.286;2023-02-23T03:50:54;50.57;;;37.37;;
15142;SDS011;7672;50.834;6.286;2023-02-23T03:53:48;50.73;;;38.77;;
15142;SDS011;7672;50.834;6.286;2023-02-23T03:56:42;50.30;;;37.90;;
15142;SDS011;7672;50.834;6.286;2023-02-23T03:59:33;47.20;;;36.60;;
15142;SDS011;7672;50.834;6.286;2023-02-23T04:02:27;50.17;;;35.97;;
15142;SDS011;7672;50.834;6.286;2023-02-23T04:05:16;49.87;;;36.40;;
15142;SDS011;7672;50.834;6.286;2023-02-23T04:08:04;48.57;;;36.13;;
15142;SDS011;7672;50.834;6.286;2023-02-23T04:11:57;43.40;;;33.70;;
15142;SDS011;7672;50.834;6.286;2023-02-23T04:14:30;43.90;;;33.90;;
15142;SDS011;7672;50.834;6.286;2023-02-23T04:17:08;44.60;;;31.83;;
15142;SDS011;7672;50.834;6.286;2023-02-23T04:19:37;43.37;;;33.00;;
15142;SDS011;7672;50.834;6.286;2023-02-23T04:22:04;41.10;;;31.23;;
15142;SDS011;7672;50.834;6.286;2023-02-23T04:24:31;40.10;;;31.47;;
15142;SDS011;7672;50.834;6.286;2023-02-23T04:26:57;43.03;;;30.47;;
15142;SDS011;7672;50.834;6.286;2023-02-23T04:29:24;41.90;;;30.93;;
15142;SDS011;7672;50.834;6.286;2023-02-23T04:31:51;43.37;;;30.53;;
15142;SDS011;7672;50.834;6.286;2023-02-23T04:34:19;38.40;;;32.53;;
15142;SDS011;7672;50.834;6.286;2023-02-23T04:36:45;43.07;;;31.13;;
15142;SDS011;7672;50.834;6.286;2023-02-23T04:39:12;42.00;;;29.83;;
15142;SDS011;7672;50.834;6.286;2023-02-23T04:41:39;37.00;;;30.50;;
15142;SDS011;7672;50.834;6.286;2023-02-23T04:44:06;39.50;;;30.10;;
15142;SDS011;7672;50.834;6.286;2023-02-23T04:46:33;42.93;;;29.60;;
15142;SDS011;7672;50.834;6.286;2023-02-23T04:48:59;39.73;;;29.50;;
15142;SDS011;7672;50.834;6.286;2023-02-23T04:51:27;36.47;;;27.63;;
15142;SDS011;7672;50.834;6.286;2023-02-23T04:53:57;41.17;;;27.33;;
15142;SDS011;7672;50.834;6.286;2023-02-23T04:56:24;42.03;;;29.33;;
15142;SDS011;7672;50.834;6.286;2023-02-23T04:58:51;39.47;;;28.27;;
15142;SDS011;7672;50.834;6.286;2023-02-23T05:01:18;41.27;;;32.00;;
15142;SDS011;7672;50.834;6.286;2023-02-23T05:03:47;40.07;;;29.93;;
15142;SDS011;7672;50.834;6.286;2023-02-23T05:06:18;44.07;;;29.77;;
15142;SDS011;7672;50.834;6.286;2023-02-23T05:08:46;41.83;;;32.10;;
15142;SDS011;7672;50.834;6.286;2023-02-23T05:11:13;43.23;;;29.03;;
15142;SDS011;7672;50.834;6.286;2023-02-23T05:13:39;43.33;;;32.50;;
15142;SDS011;7672;50.834;6.286;2023-02-23T05:16:06;42.00;;;27.80;;
15142;SDS011;7672;50.834;6.286;2023-02-23T05:18:33;43.93;;;29.73;;
15142;SDS011;7672;50.834;6.286;2023-02-23T05:21:01;46.23;;;31.20;;
15142;SDS011;7672;50.834;6.286;2023-02-23T05:23:33;45.43;;;32.27;;
15142;SDS011;7672;50.834;6.286;2023-02-23T05:26:11;43.60;;;30.67;;
15142;SDS011;7672;50.834;6.286;2023-02-23T05:28:39;43.83;;;30.03;;
15142;SDS011;7672;50.834;6.286;2023-02-23T05:31:07;53.47;;;39.65;;
15142;SDS011;7672;50.834;6.286;2023-02-23T05:33:35;45.57;;;32.97;;
15142;SDS011;7672;50.834;6.286;2023-02-23T05:36:11;42.80;;;31.33;;
15142;SDS011;7672;50.834;6.286;2023-02-23T05:38:42;50.77;;;33.73;;
15142;SDS011;7672;50.834;6.286;2023-02-23T05:41:12;44.50;;;32.03;;
15142;SDS011;7672;50.834;6.286;2023-02-23T05:43:47;44.83;;;32.00;;
15142;SDS011;7672;50.834;6.286;2023-02-23T05:46:19;42.63;;;30.70;;
15142;SDS011;7672;50.834;6.286;2023-02-23T05:48:54;40.83;;;29.77;;
15142;SDS011;7672;50.834;6.286;2023-02-23T05:51:24;40.23;;;29.27;;
15142;SDS011;7672;50.834;6.286;2023-02-23T05:53:52;40.67;;;29.83;;
15142;SDS011;7672;50.834;6.286;2023-02-23T05:56:19;37.63;;;29.43;;
15142;SDS011;7672;50.834;6.286;2023-02-23T05:58:50;37.67;;;28.97;;
15142;SDS011;7672;50.834;6.286;2023-02-23T06:01:21;42.77;;;27.10;;
15142;SDS011;7672;50.834;6.286;2023-02-23T06:03:48;37.13;;;29.40;;
15142;SDS011;7672;50.834;6.286;2023-02-23T06:06:16;34.67;;;25.87;;
15142;SDS011;7672;50.834;6.286;2023-02-23T06:08:43;34.37;;;24.90;;
15142;SDS011;7672;50.834;6.286;2023-02-23T06:11:10;39.07;;;28.80;;
15142;SDS011;7672;50.834;6.286;2023-02-23T06:13:37;37.03;;;26.97;;
15142;SDS011;7672;50.834;6.286;2023-02-23T06:16:04;33.83;;;25.03;;
15142;SDS011;7672;50.834;6.286;2023-02-23T06:18:33;33.83;;;25.43;;
15142;SDS011;7672;50.834;6.286;2023-02-23T06:21:00;36.77;;;26.37;;
15142;SDS011;7672;50.834;6.286;2023-02-23T06:23:29;34.30;;;27.67;;
15142;SDS011;7672;50.834;6.286;2023-02-23T06:25:57;33.80;;;28.03;;
15142;SDS011;7672;50.834;6.286;2023-02-23T06:28:25;31.33;;;25.60;;
15142;SDS011;7672;50.834;6.286;2023-02-23T06:30:53;35.17;;;26.43;;
15142;SDS011;7672;50.834;6.286;2023-02-23T06:33:21;33.07;;;26.40;;
15142;SDS011;7672;50.834;6.286;2023-02-23T06:35:48;32.27;;;25.17;;
15142;SDS011;7672;50.834;6.286;2023-02-23T06:38:15;33.13;;;24.87;;
15142;SDS011;7672;50.834;6.286;2023-02-23T06:40:42;27.40;;;22.43;;
15142;SDS011;7672;50.834;6.286;2023-02-23T06:43:09;31.37;;;26.37;;
15142;SDS011;7672;50.834;6.286;2023-02-23T06:45:36;30.80;;;24.03;;
15142;SDS011;7672;50.834;6.286;2023-02-23T06:48:03;30.77;;;27.20;;
15142;SDS011;7672;50.834;6.286;2023-02-23T06:50:31;34.43;;;28.53;;
15142;SDS011;7672;50.834;6.286;2023-02-23T06:52:57;33.77;;;27.23;;
15142;SDS011;7672;50.834;6.286;2023-02-23T06:55:24;30.77;;;24.20;;
15142;SDS011;7672;50.834;6.286;2023-02-23T06:57:51;34.23;;;24.87;;
15142;SDS011;7672;50.834;6.286;2023-02-23T07:00:19;34.17;;;23.93;;
15142;SDS011;7672;50.834;6.286;2023-02-23T07:02:46;34.67;;;28.77;;
15142;SDS011;7672;50.834;6.286;2023-02-23T07:05:13;33.53;;;23.87;;
15142;SDS011;7672;50.834;6.286;2023-02-23T07:07:41;30.80;;;22.63;;
15142;SDS011;7672;50.834;6.286;2023-02-23T07:10:08;36.40;;;25.03;;
15142;SDS011;7672;50.834;6.286;2023-02-23T07:12:36;32.53;;;22.73;;
15142;SDS011;7672;50.834;6.286;2023-02-23T07:15:03;36.27;;;23.57;;
15142;SDS011;7672;50.834;6.286;2023-02-23T07:17:30;32.63;;;23.47;;
15142;SDS011;7672;50.834;6.286;2023-02-23T07:19:57;37.17;;;26.07;;
15142;SDS011;7672;50.834;6.286;2023-02-23T07:22:24;36.03;;;25.70;;
15142;SDS011;7672;50.834;6.286;2023-02-23T07:24:55;33.70;;;24.87;;
15142;SDS011;7672;50.834;6.286;2023-02-23T07:27:22;31.10;;;22.63;;
15142;SDS011;7672;50.834;6.286;2023-02-23T07:29:49;36.17;;;25.00;;
15142;SDS011;7672;50.834;6.286;2023-02-23T07:32:16;35.80;;;23.97;;
15142;SDS011;7672;50.834;6.286;2023-02-23T07:34:43;37.70;;;25.57;;
15142;SDS011;7672;50.834;6.286;2023-02-23T07:37:11;36.50;;;25.70;;
15142;SDS011;7672;50.834;6.286;2023-02-23T07:39:37;33.00;;;23.30;;
15142;SDS011;7672;50.834;6.286;2023-02-23T07:42:04;38.53;;;27.47;;
15142;SDS011;7672;50.834;6.286;2023-02-23T07:44:31;36.27;;;24.57;;
15142;SDS011;7672;50.834;6.286;2023-02-23T07:46:58;35.33;;;24.83;;
15142;SDS011;7672;50.834;6.286;2023-02-23T07:49:24;37.77;;;24.97;;
15142;SDS011;7672;50.834;6.286;2023-02-23T07:51:52;39.43;;;26.50;;
15142;SDS011;7672;50.834;6.286;2023-02-23T07:54:18;40.07;;;25.97;;
15142;SDS011;7672;50.834;6.286;2023-02-23T07:56:47;39.90;;;26.00;;
15142;SDS011;7672;50.834;6.286;2023-02-23T07:59:13;44.87;;;26.20;;
15142;SDS011;7672;50.834;6.286;2023-02-23T08:01:40;45.30;;;27.57;;
15142;SDS011;7672;50.834;6.286;2023-02-23T08:04:07;38.83;;;25.47;;
15142;SDS011;7672;50.834;6.286;2023-02-23T08:06:34;46.53;;;27.97;;
15142;SDS011;7672;50.834;6.286;2023-02-23T08:09:02;42.10;;;28.73;;
15142;SDS011;7672;50.834;6.286;2023-02-23T08:11:30;43.07;;;28.30;;
15142;SDS011;7672;50.834;6.286;2023-02-23T08:13:57;44.40;;;29.67;;
15142;SDS011;7672;50.834;6.286;2023-02-23T08:16:26;45.00;;;29.03;;
15142;SDS011;7672;50.834;6.286;2023-02-23T08:18:57;47.03;;;27.50;;
15142;SDS011;7672;50.834;6.286;2023-02-23T08:21:26;43.20;;;27.70;;
15142;SDS011;7672;50.834;6.286;2023-02-23T08:23:55;40.87;;;27.20;;
15142;SDS011;7672;50.834;6.286;2023-02-23T08:26:30;44.00;;;27.33;;
15142;SDS011;7672;50.834;6.286;2023-02-23T08:29:10;42.37;;;26.53;;
15142;SDS011;7672;50.834;6.286;2023-02-23T08:31:39;48.27;;;28.37;;
15142;SDS011;7672;50.834;6.286;2023-02-23T08:34:06;45.80;;;29.23;;
15142;SDS011;7672;50.834;6.286;2023-02-23T08:36:38;43.70;;;26.77;;
15142;SDS011;7672;50.834;6.286;2023-02-23T08:39:09;44.97;;;27.67;;
15142;SDS011;7672;50.834;6.286;2023-02-23T08:41:40;45.10;;;27.23;;
15142;SDS011;7672;50.834;6.286;2023-02-23T08:44:07;41.77;;;27.00;;
15142;SDS011;7672;50.834;6.286;2023-02-23T08:46:34;44.73;;;26.77;;
15142;SDS011;7672;50.834;6.286;2023-02-23T08:49:01;42.77;;;25.57;;
15142;SDS011;7672;50.834;6.286;2023-02-23T08:51:34;40.37;;;25.53;;
15142;SDS011;7672;50.834;6.286;2023-02-23T08:54:02;42.03;;;27.27;;
15142;SDS011;7672;50.834;6.286;2023-02-23T08:56:31;39.43;;;25.87;;
15142;SDS011;7672;50.834;6.286;2023-02-23T08:59:01;40.60;;;25.33;;
15142;SDS011;7672;50.834;6.286;2023-02-23T09:01:28;39.53;;;24.87;;
15142;SDS011;7672;50.834;6.286;2023-02-23T09:03:57;39.47;;;26.10;;
15142;SDS011;7672;50.834;6.286;2023-02-23T09:06:30;42.70;;;28.17;;
15142;SDS011;7672;50.834;6.286;2023-02-23T09:09:00;42.43;;;26.57;;
15142;SDS011;7672;50.834;6.286;2023-02-23T09:11:27;43.07;;;26.93;;
15142;SDS011;7672;50.834;6.286;2023-02-23T09:13:54;42.27;;;26.47;;
15142;SDS011;7672;50.834;6.286;2023-02-23T09:16:21;41.00;;;26.53;;
15142;SDS011;7672;50.834;6.286;2023-02-23T09:18:49;41.70;;;26.63;;
15142;SDS011;7672;50.834;6.286;2023-02-23T09:21:17;48.60;;;29.77;;
15142;SDS011;7672;50.834;6.286;2023-02-23T09:23:47;48.23;;;29.33;;
15142;SDS011;7672;50.834;6.286;2023-02-23T09:26:16;45.93;;;27.30;;
15142;SDS011;7672;50.834;6.286;2023-02-23T09:28:45;44.60;;;27.37;;
15142;SDS011;7672;50.834;6.286;2023-02-23T09:31:27;50.30;;;30.10;;
15142;SDS011;7672;50.834;6.286;2023-02-23T09:33:56;41.43;;;25.43;;
15142;SDS011;7672;50.834;6.286;2023-02-23T09:36:27;44.53;;;28.37;;
15142;SDS011;7672;50.834;6.286;2023-02-23T09:38:57;45.43;;;28.43;;
15142;SDS011;7672;50.834;6.286;2023-02-23T09:49:47;41.63;;;25.70;;
15142;SDS011;7672;50.834;6.286;2023-02-23T09:52:17;45.40;;;27.30;;
15142;SDS011;7672;50.834;6.286;2023-02-23T09:54:52;61.27;;;28.87;;
15142;SDS011;7672;50.834;6.286;2023-02-23T09:57:31;91.30;;;32.63;;
15142;SDS011;7672;50.834;6.286;2023-02-23T10:13:27;74.43;;;31.47;;
15142;SDS011;7672;50.834;6.286;2023-02-23T10:16:36;80.00;;;32.30;;
15142;SDS011;7672;50.834;6.286;2023-02-23T10:22:28;54.97;;;29.20;;
15142;SDS011;7672;50.834;6.286;2023-02-23T10:25:17;60.93;;;30.33;;
15142;SDS011;7672;50.834;6.286;2023-02-23T10:27:51;66.73;;;31.80;;
15142;SDS011;7672;50.834;6.286;2023-02-23T10:30:28;66.00;;;30.67;;
15142;SDS011;7672;50.834;6.286;2023-02-23T10:33:06;61.00;;;31.03;;
15142;SDS011;7672;50.834;6.286;2023-02-23T10:35:41;56.13;;;29.10;;
15142;SDS011;7672;50.834;6.286;2023-02-23T10:38:15;47.97;;;27.37;;
15142;SDS011;7672;50.834;6.286;2023-02-23T10:40:46;40.73;;;25.53;;
15142;SDS011;7672;50.834;6.286;2023-02-23T10:43:20;39.67;;;24.80;;
15142;SDS011;7672;50.834;6.286;2023-02-23T10:45:48;42.27;;;23.70;;
15142;SDS011;7672;50.834;6.286;2023-02-23T10:48:21;39.07;;;24.67;;
15142;SDS011;7672;50.834;6.286;2023-02-23T10:50:54;37.03;;;22.00;;
15142;SDS011;7672;50.834;6.286;2023-02-23T10:53:35;35.47;;;22.53;;
15142;SDS011;7672;50.834;6.286;2023-02-23T10:56:15;39.50;;;23.40;;
15142;SDS011;7672;50.834;6.286;2023-02-23T10:58:49;40.33;;;22.53;;
15142;SDS011;7672;50.834;6.286;2023-02-23T11:01:33;37.87;;;22.40;;
15142;SDS011;7672;50.834;6.286;2023-02-23T11:04:28;41.73;;;22.90;;
15142;SDS011;7672;50.834;6.286;2023-02-23T11:07:08;35.80;;;23.43;;
15142;SDS011;7672;50.834;6.286;2023-02-23T11:09:41;35.10;;;20.63;;
15142;SDS011;7672;50.834;6.286;2023-02-23T11:12:23;41.87;;;23.63;;
15142;SDS011;7672;50.834;6.286;2023-02-23T11:15:41;38.67;;;22.23;;
15142;SDS011;7672;50.834;6.286;2023-02-23T11:18:20;42.70;;;23.33;;
15142;SDS011;7672;50.834;6.286;2023-02-23T11:20:50;40.87;;;24.43;;
15142;SDS011;7672;50.834;6.286;2023-02-23T11:23:33;39.07;;;24.17;;
15142;SDS011;7672;50.834;6.286;2023-02-23T11:29:12;43.90;;;23.27;;
15142;SDS011;7672;50.834;6.286;2023-02-23T11:31:51;37.07;;;23.03;;
15142;SDS011;7672;50.834;6.286;2023-02-23T11:34:27;40.30;;;24.23;;
15142;SDS011;7672;50.834;6.286;2023-02-23T11:37:03;43.00;;;23.90;;
15142;SDS011;7672;50.834;6.286;2023-02-23T11:40:29;41.17;;;24.40;;
15142;SDS011;7672;50.834;6.286;2023-02-23T11:42:56;38.27;;;23.57;;
15142;SDS011;7672;50.834;6.286;2023-02-23T11:45:54;38.60;;;23.53;;
15142;SDS011;7672;50.834;6.286;2023-02-23T11:51:34;34.00;;;19.27;;
15142;SDS011;7672;50.834;6.286;2023-02-23T11:54:05;35.80;;;20.30;;
15142;SDS011;7672;50.834;6.286;2023-02-23T11:56:47;36.00;;;21.10;;
15142;SDS011;7672;50.834;6.286;2023-02-23T11:59:17;35.83;;;20.73;;
15142;SDS011;7672;50.834;6.286;2023-02-23T12:01:52;36.73;;;21.77;;
15142;SDS011;7672;50.834;6.286;2023-02-23T12:04:29;37.03;;;22.93;;
15142;SDS011;7672;50.834;6.286;2023-02-23T12:10:12;38.77;;;22.73;;
15142;SDS011;7672;50.834;6.286;2023-02-23T12:13:01;40.87;;;23.60;;
15142;SDS011;7672;50.834;6.286;2023-02-23T12:15:40;44.97;;;26.17;;
15142;SDS011;7672;50.834;6.286;2023-02-23T12:21:46;42.93;;;23.10;;
15142;SDS011;7672;50.834;6.286;2023-02-23T12:27:10;41.10;;;23.60;;
15142;SDS011;7672;50.834;6.286;2023-02-23T12:29:53;45.50;;;23.43;;
15142;SDS011;7672;50.834;6.286;2023-02-23T12:33:03;44.33;;;24.87;;
15142;SDS011;7672;50.834;6.286;2023-02-23T12:35:50;49.27;;;27.73;;
15142;SDS011;7672;50.834;6.286;2023-02-23T12:41:24;45.33;;;25.57;;
15142;SDS011;7672;50.834;6.286;2023-02-23T12:44:18;50.70;;;24.70;;
15142;SDS011;7672;50.834;6.286;2023-02-23T12:50:31;47.77;;;24.33;;
15142;SDS011;7672;50.834;6.286;2023-02-23T12:53:16;45.30;;;25.27;;
15142;SDS011;7672;50.834;6.286;2023-02-23T12:56:27;48.00;;;27.03;;
15142;SDS011;7672;50.834;6.286;2023-02-23T12:59:19;45.63;;;23.80;;
15142;SDS011;7672;50.834;6.286;2023-02-23T13:07:58;41.27;;;22.43;;
15142;SDS011;7672;50.834;6.286;2023-02-23T13:13:49;37.27;;;22.27;;
15142;SDS011;7672;50.834;6.286;2023-02-23T13:16:54;40.73;;;19.73;;
15142;SDS011;7672;50.834;6.286;2023-02-23T13:19:37;40.17;;;20.67;;
15142;SDS011;7672;50.834;6.286;2023-02-23T13:25:02;38.30;;;20.23;;
15142;SDS011;7672;50.834;6.286;2023-02-23T13:27:56;34.63;;;18.10;;
15142;SDS011;7672;50.834;6.286;2023-02-23T13:30:28;27.33;;;15.83;;
15142;SDS011;7672;50.834;6.286;2023-02-23T13:33:02;28.90;;;16.30;;
15142;SDS011;7672;50.834;6.286;2023-02-23T13:35:44;29.87;;;16.90;;
15142;SDS011;7672;50.834;6.286;2023-02-23T13:38:19;29.37;;;16.10;;
15142;SDS011;7672;50.834;6.286;2023-02-23T13:40:59;28.40;;;16.83;;
15142;SDS011;7672;50.834;6.286;2023-02-23T13:47:16;28.37;;;16.30;;
15142;SDS011;7672;50.834;6.286;2023-02-23T13:50:15;26.47;;;15.80;;
15142;SDS011;7672;50.834;6.286;2023-02-23T13:52:44;27.07;;;16.70;;
15142;SDS011;7672;50.834;6.286;2023-02-23T13:58:13;30.67;;;17.57;;
15142;SDS011;7672;50.834;6.286;2023-02-23T14:00:48;26.10;;;17.13;;
15142;SDS011;7672;50.834;6.286;2023-02-23T14:03:28;31.90;;;20.47;;
15142;SDS011;7672;50.834;6.286;2023-02-23T14:06:04;28.17;;;17.43;;
15142;SDS011;7672;50.834;6.286;2023-02-23T14:08:34;28.43;;;18.20;;
15142;SDS011;7672;50.834;6.286;2023-02-23T14:11:04;28.60;;;16.30;;
15142;SDS011;7672;50.834;6.286;2023-02-23T14:13:32;26.03;;;17.20;;
15142;SDS011;7672;50.834;6.286;2023-02-23T14:16:11;26.87;;;16.20;;
15142;SDS011;7672;50.834;6.286;2023-02-23T14:19:04;27.10;;;15.57;;
15142;SDS011;7672;50.834;6.286;2023-02-23T14:24:24;27.23;;;16.80;;
15142;SDS011;7672;50.834;6.286;2023-02-23T14:32:37;28.23;;;15.80;;
15142;SDS011;7672;50.834;6.286;2023-02-23T14:37:59;25.23;;;18.27;;
15142;SDS011;7672;50.834;6.286;2023-02-23T14:40:33;27.33;;;19.83;;
15142;SDS011;7672;50.834;6.286;2023-02-23T14:46:07;25.17;;;14.30;;
15142;SDS011;7672;50.834;6.286;2023-02-23T14:51:39;22.53;;;14.13;;
15142;SDS011;7672;50.834;6.286;2023-02-23T14:54:29;24.37;;;17.23;;
15142;SDS011;7672;50.834;6.286;2023-02-23T14:57:04;23.70;;;17.13;;
15142;SDS011;7672;50.834;6.286;2023-02-23T14:59:50;22.20;;;14.80;;
15142;SDS011;7672;50.834;6.286;2023-02-23T15:02:27;26.43;;;15.57;;
15142;SDS011;7672;50.834;6.286;2023-02-23T15:04:55;23.67;;;13.63;;
15142;SDS011;7672;50.834;6.286;2023-02-23T15:10:10;27.97;;;17.93;;
15142;SDS011;7672;50.834;6.286;2023-02-23T15:12:45;25.93;;;14.87;;
15142;SDS011;7672;50.834;6.286;2023-02-23T15:15:15;24.30;;;14.20;;
15142;SDS011;7672;50.834;6.286;2023-02-23T15:17:47;23.67;;;14.97;;
15142;SDS011;7672;50.834;6.286;2023-02-23T15:20:23;21.43;;;14.43;;
15142;SDS011;7672;50.834;6.286;2023-02-23T15:23:02;26.23;;;16.53;;
15142;SDS011;7672;50.834;6.286;2023-02-23T15:25:35;24.13;;;14.13;;
15142;SDS011;7672;50.834;6.286;2023-02-23T15:28:17;25.27;;;17.77;;
15142;SDS011;7672;50.834;6.286;2023-02-23T15:30:52;24.83;;;15.67;;
15142;SDS011;7672;50.834;6.286;2023-02-23T15:33:25;21.67;;;13.87;;
15142;SDS011;7672;50.834;6.286;2023-02-23T15:38:29;21.30;;;13.27;;
15142;SDS011;7672;50.834;6.286;2023-02-23T15:41:28;22.27;;;14.50;;
15142;SDS011;7672;50.834;6.286;2023-02-23T15:44:04;25.63;;;15.80;;
15142;SDS011;7672;50.834;6.286;2023-02-23T15:46:53;23.93;;;13.97;;
15142;SDS011;7672;50.834;6.286;2023-02-23T15:49:30;23.53;;;14.47;;
15142;SDS011;7672;50.834;6.286;2023-02-23T15:52:05;25.03;;;15.27;;
15142;SDS011;7672;50.834;6.286;2023-02-23T15:54:47;27.00;;;16.20;;
15142;SDS011;7672;50.834;6.286;2023-02-23T15:57:31;23.87;;;15.00;;
15142;SDS011;7672;50.834;6.286;2023-02-23T16:00:19;25.87;;;15.10;;
15142;SDS011;7672;50.834;6.286;2023-02-23T16:03:20;25.60;;;15.67;;
15142;SDS011;7672;50.834;6.286;2023-02-23T16:06:00;26.33;;;15.47;;
15142;SDS011;7672;50.834;6.286;2023-02-23T16:08:32;27.37;;;17.07;;
15142;SDS011;7672;50.834;6.286;2023-02-23T16:11:07;26.97;;;16.43;;
15142;SDS011;7672;50.834;6.286;2023-02-23T16:13:44;28.77;;;16.23;;
15142;SDS011;7672;50.834;6.286;2023-02-23T16:16:14;28.73;;;16.40;;
15142;SDS011;7672;50.834;6.286;2023-02-23T16:18:46;29.60;;;18.67;;
15142;SDS011;7672;50.834;6.286;2023-02-23T16:21:20;26.53;;;16.87;;
15142;SDS011;7672;50.834;6.286;2023-02-23T16:23:51;31.17;;;17.87;;
15142;SDS011;7672;50.834;6.286;2023-02-23T16:29:31;29.13;;;17.27;;
15142;SDS011;7672;50.834;6.286;2023-02-23T16:32:16;31.13;;;18.37;;
15142;SDS011;7672;50.834;6.286;2023-02-23T16:34:47;27.50;;;17.03;;
15142;SDS011;7672;50.834;6.286;2023-02-23T16:37:21;28.50;;;18.40;;
15142;SDS011;7672;50.834;6.286;2023-02-23T16:39:51;34.63;;;18.73;;
15142;SDS011;7672;50.834;6.286;2023-02-23T16:42:25;30.93;;;18.43;;
15142;SDS011;7672;50.834;6.286;2023-02-23T16:44:59;27.87;;;17.33;;
15142;SDS011;7672;50.834;6.286;2023-02-23T16:47:43;33.83;;;19.03;;
15142;SDS011;7672;50.834;6.286;2023-02-23T16:50:19;29.57;;;17.87;;
15142;SDS011;7672;50.834;6.286;2023-02-23T16:52:50;31.87;;;18.30;;
15142;SDS011;7672;50.834;6.286;2023-02-23T16:55:27;30.93;;;18.20;;
15142;SDS011;7672;50.834;6.286;2023-02-23T16:57:58;30.33;;;18.37;;
15142;SDS011;7672;50.834;6.286;2023-02-23T17:00:29;35.33;;;18.70;;
15142;SDS011;7672;50.834;6.286;2023-02-23T17:02:58;26.57;;;18.13;;
15142;SDS011;7672;50.834;6.286;2023-02-23T17:05:26;29.07;;;19.23;;
15142;SDS011;7672;50.834;6.286;2023-02-23T17:07:54;27.67;;;18.50;;
15142;SDS011;7672;50.834;6.286;2023-02-23T17:10:24;31.17;;;17.50;;
15142;SDS011;7672;50.834;6.286;2023-02-23T17:13:01;29.03;;;18.20;;
15142;SDS011;7672;50.834;6.286;2023-02-23T17:15:33;31.90;;;18.77;;
15142;SDS011;7672;50.834;6.286;2023-02-23T17:18:03;32.10;;;17.80;;
15142;SDS011;7672;50.834;6.286;2023-02-23T17:20:30;35.20;;;19.40;;
15142;SDS011;7672;50.834;6.286;2023-02-23T17:22:59;31.27;;;18.60;;
15142;SDS011;7672;50.834;6.286;2023-02-23T17:25:27;30.47;;;19.33;;
15142;SDS011;7672;50.834;6.286;2023-02-23T17:27:55;33.63;;;18.80;;
15142;SDS011;7672;50.834;6.286;2023-02-23T17:30:23;34.93;;;19.67;;
15142;SDS011;7672;50.834;6.286;2023-02-23T17:32:51;31.10;;;19.50;;
15142;SDS011;7672;50.834;6.286;2023-02-23T17:35:22;32.83;;;18.20;;